YOSEMITE NATIONAL PARK, CA

12:05 AM PDT on August 29, 2014 (GMT -0700)
GIN FLAT | Change Station
CLOSE
Current Station
Personal Weather Station
Location: Yosemite National Park, CA
Elevation: 7083 ft
Nearby Weather Stations

Elev 7083 ft 37.77 °N, 119.77 °W | Updated 18 minutes ago

Clear
Clear
62.0 °F
Feels Like 62.0 °F
N
2.0
Wind Variable Wind from SSE

Today
High -- | Low -- °F
--% Chance of Precip.
Yesterday
High -- | Low -- °F
Precip. -- in
6:26 AM 7:32 PM
Waxing Crescent, 12% visible
Pressure 30.31 in
Visibility 10.0 miles
Clouds Clear
Dew Point 25 °F
Humidity 24%
Rainfall -999.00 in
Snow Depth Not available.
UV 0 out of 12
Pollen 9.10 out of 12
Air Quality Not available.
Flu Activity Not available.
METAR KMMH 290655Z AUTO 00000KT 10SM CLR 13/M04 A3031 RMK AO1

More Conditions Fewer Conditions

Pressure 30.31 in
Visibility 10.0 miles
Clouds Clear
Dew Point 25 °F
Humidity 24%
Rainfall -999.00 in
Snow Depth Not available.
UV 0 out of 12
Pollen 9.10 out of 12
Air Quality Not available.
Flu Activity Not available.
METAR KMMH 290655Z AUTO 00000KT 10SM CLR 13/M04 A3031 RMK AO1

More Conditions Fewer Conditions

10-Day Weather Forecast

Almanac

Astronomy

Aug. 29, 2014 Rise Set
Actual Time 6:26 AM PDT 7:32 PM PDT
Civil Twilight 5:59 AM PDT 7:59 PM PDT
Nautical Twilight 5:27 AM PDT 8:31 PM PDT
Astronomical Twilight 4:53 AM PDT 9:04 PM PDT
Moon 10:15 AM PDT 9:38 PM PDT
Length of Visible Light 13h 59m
Length of Day
13h 05m
Tomorrow will be 2m 18s shorter.
Waxing Crescent, 12% of the Moon is Illuminated
Today
Waxing Crescent
Sep 2
First Quarter
Sep 8
Full
Sep 15
Last Quarter
Sep 24
New

Community

WunderPhotos

Upload Photos

1,748,197 photos uploaded!

Nearby

Snow Depth

Station Depth Elevation
Leavitt Lake 1 in 9400 ft
Leavitt Meadows 1 in 7200 ft
Summit Meadow 0 in 9122 ft
Blue Lakes 0 in 8000 ft
Monitor Pass 1 in 8350 ft

Earthquake Activity

City Distance Mag. Time & Date
Soledad, California 112 miles 2.6 12:15 PM PDT
2014-08-26
Minimum magnitude displayed is 2.5.

Coastal Water Temperatures

Place Temperature
No Stations Reporting

Nearby Weather Stations